Time;durP1;ratioP1;P1;durP2;ratioP2;P2;SDS_P1;SDS_P2;PMS_P1;PMS_P2;Temp;Humidity;BMP_temperature;BMP_pressure;BME280_temperature;BME280_humidity;BME280_pressure;Samples;Min_cycle;Max_cycle;Signal;HPM_P1;HPM_P2
2022/06/19 00:46:03;;;;;;;9.13;8.30;;;24.70;92.90;;;;;;6109295;22;1941375;-75
2022/06/19 00:48:36;;;;;;;8.27;7.43;;;24.70;93.00;;;;;;6172756;23;20217;-80
2022/06/19 00:51:07;;;;;;;7.40;6.70;;;24.70;93.00;;;;;;6168299;23;20519;-74
2022/06/19 00:53:39;;;;;;;7.07;6.37;;;24.70;93.00;;;;;;6165784;23;20791;-79
2022/06/19 00:56:13;;;;;;;8.27;7.47;;;24.60;92.90;;;;;;6168766;23;20788;-74
2022/06/19 00:58:43;;;;;;;7.40;6.73;;;24.60;93.00;;;;;;6164235;23;20736;-74
2022/06/19 01:01:15;;;;;;;7.83;7.13;;;24.60;93.00;;;;;;6163374;23;20959;-74
2022/06/19 01:03:51;;;;;;;8.80;7.80;;;24.60;93.00;;;;;;6164140;23;20440;-75
2022/06/19 01:06:18;;;;;;;7.17;6.57;;;24.60;93.00;;;;;;6164543;23;20452;-75
2022/06/19 01:08:47;;;;;;;7.93;7.23;;;24.60;93.10;;;;;;6165965;23;20436;-79
2022/06/19 01:11:15;;;;;;;7.30;6.60;;;24.60;93.10;;;;;;6165463;23;20448;-75
2022/06/19 01:13:42;;;;;;;9.13;7.20;;;24.60;93.10;;;;;;6169118;23;20437;-79
2022/06/19 01:16:12;;;;;;;8.93;8.23;;;24.50;93.20;;;;;;6171043;23;20437;-79
2022/06/19 01:18:40;;;;;;;8.93;7.00;;;24.50;93.30;;;;;;6162210;23;20437;-75
2022/06/19 01:21:13;;;;;;;11.30;7.60;;;24.50;93.40;;;;;;6158965;23;20917;-75
2022/06/19 01:23:48;;;;;;;9.20;7.00;;;24.40;93.50;;;;;;6158353;23;20433;-74
2022/06/19 01:26:17;;;;;;;8.30;7.50;;;24.30;93.60;;;;;;6159334;23;20964;-76
2022/06/19 01:28:55;;;;;;;7.60;6.97;;;24.30;93.60;;;;;;6157383;23;20739;-78
2022/06/19 01:31:26;;;;;;;8.40;7.03;;;24.30;93.70;;;;;;6159503;23;20777;-74
2022/06/19 01:33:58;;;;;;;7.30;6.60;;;24.30;93.70;;;;;;6157249;23;20440;-75
2022/06/19 01:36:28;;;;;;;10.57;7.33;;;24.30;93.70;;;;;;6165429;23;20854;-80
2022/06/19 01:38:56;;;;;;;7.10;6.43;;;24.20;93.70;;;;;;6168675;23;20739;-80
2022/06/19 01:41:32;;;;;;;9.83;6.50;;;24.20;93.80;;;;;;6169074;23;20457;-80
2022/06/19 01:43:59;;;;;;;9.23;7.33;;;24.10;93.90;;;;;;6172592;23;20453;-80
2022/06/19 01:46:29;;;;;;;7.57;6.87;;;24.00;94.10;;;;;;6165193;23;20910;-80
2022/06/19 01:48:57;;;;;;;9.93;7.27;;;24.00;94.20;;;;;;6167571;23;20434;-80
2022/06/19 01:51:25;;;;;;;7.63;6.80;;;24.00;94.30;;;;;;6169283;23;20441;-80
2022/06/19 01:53:57;;;;;;;9.23;6.97;;;23.90;94.40;;;;;;6173453;23;20438;-80
2022/06/19 01:56:27;;;;;;;8.10;6.50;;;23.80;94.60;;;;;;6169352;23;20449;-76
2022/06/19 01:59:00;;;;;;;11.73;7.70;;;23.80;94.80;;;;;;6165142;23;20504;-80
2022/06/19 02:01:49;;;;;;;8.83;7.57;;;23.80;95.00;;;;;;6172791;23;20441;-76
2022/06/19 02:04:16;;;;;;;8.70;6.87;;;23.80;95.10;;;;;;6159405;23;20441;-76
2022/06/19 02:06:45;;;;;;;7.77;7.07;;;23.70;95.10;;;;;;6155876;23;20460;-77
2022/06/19 02:09:16;;;;;;;7.70;7.00;;;23.70;95.30;;;;;;6155336;23;20987;-77
2022/06/19 02:11:44;;;;;;;7.70;7.10;;;23.70;95.30;;;;;;6157600;23;20442;-77
2022/06/19 02:14:14;;;;;;;6.93;6.17;;;23.60;95.30;;;;;;6156714;23;20462;-77
2022/06/19 02:16:43;;;;;;;7.97;7.27;;;23.60;95.40;;;;;;6156781;23;20509;-76
2022/06/19 02:19:10;;;;;;;7.17;6.40;;;23.70;95.50;;;;;;6156372;23;20446;-76
2022/06/19 02:21:42;;;;;;;6.90;6.40;;;23.60;95.50;;;;;;6157816;23;20461;-76
2022/06/19 02:24:15;;;;;;;7.57;6.77;;;23.60;95.50;;;;;;6157184;23;20940;-76
2022/06/19 02:26:44;;;;;;;11.23;7.30;;;23.60;95.50;;;;;;6157724;23;20925;-77
2022/06/19 02:29:16;;;;;;;6.60;6.10;;;23.60;95.50;;;;;;6156458;23;20437;-76
2022/06/19 02:31:46;;;;;;;8.57;7.83;;;23.60;95.50;;;;;;6157051;23;20950;-76
2022/06/19 02:34:20;;;;;;;6.17;5.67;;;23.70;95.60;;;;;;6156594;23;20442;-77
2022/06/19 02:36:50;;;;;;;7.40;6.77;;;23.70;95.50;;;;;;6161480;23;20485;-76
2022/06/19 02:39:31;;;;;;;7.13;6.43;;;23.60;95.60;;;;;;6160353;23;20500;-81
2022/06/19 02:42:06;;;;;;;6.13;5.53;;;23.60;95.60;;;;;;6157350;23;20448;-81
2022/06/19 02:44:37;;;;;;;7.97;6.70;;;23.60;95.70;;;;;;6157319;23;20503;-81
2022/06/19 02:47:05;;;;;;;9.67;6.83;;;23.60;95.70;;;;;;6157660;23;20496;-81
2022/06/19 02:49:33;;;;;;;7.70;7.10;;;23.50;96.00;;;;;;6157257;23;20437;-76
2022/06/19 02:52:01;;;;;;;8.80;7.70;;;23.50;96.00;;;;;;6156399;23;20437;-77
2022/06/19 02:54:29;;;;;;;9.00;8.07;;;23.50;96.00;;;;;;6156538;23;20434;-81
2022/06/19 02:56:56;;;;;;;10.67;7.10;;;23.50;96.10;;;;;;6157092;23;20500;-76
2022/06/19 02:59:25;;;;;;;7.43;6.87;;;23.50;96.20;;;;;;6155449;23;20956;-74
2022/06/19 03:01:52;;;;;;;8.10;6.80;;;23.50;96.10;;;;;;6156959;23;20472;-76
2022/06/19 03:04:24;;;;;;;7.33;6.50;;;23.50;96.20;;;;;;6157330;23;20464;-81
2022/06/19 03:06:52;;;;;;;7.63;6.97;;;23.50;96.20;;;;;;6158629;23;20469;-82
2022/06/19 03:09:19;;;;;;;7.53;6.93;;;23.50;96.20;;;;;;6157682;23;20437;-81
2022/06/19 03:11:46;;;;;;;7.80;6.43;;;23.50;96.30;;;;;;6157966;23;20434;-76
2022/06/19 03:14:13;;;;;;;7.90;7.13;;;23.50;96.40;;;;;;6157224;23;20433;-76
2022/06/19 03:16:42;;;;;;;10.47;8.10;;;23.50;96.50;;;;;;6186109;23;20417;-76
2022/06/19 03:19:10;;;;;;;8.60;7.73;;;23.40;96.60;;;;;;6186598;23;20720;-76
2022/06/19 03:21:37;;;;;;;13.63;8.00;;;23.40;96.70;;;;;;6186323;23;20515;-81
2022/06/19 03:24:04;;;;;;;11.57;7.97;;;23.40;96.80;;;;;;6185498;23;20436;-74
2022/06/19 03:26:31;;;;;;;8.53;7.73;;;23.40;96.80;;;;;;6186738;23;20440;-75
2022/06/19 03:28:58;;;;;;;8.30;7.47;;;23.50;96.80;;;;;;6186459;23;20942;-74
2022/06/19 03:31:28;;;;;;;7.20;6.50;;;23.40;96.90;;;;;;6184764;23;20544;-74
2022/06/19 03:33:56;;;;;;;8.40;7.60;;;23.40;97.00;;;;;;6188479;23;20445;-79
2022/06/19 03:36:24;;;;;;;8.87;8.10;;;23.40;96.90;;;;;;6192225;23;20464;-74
2022/06/19 03:38:51;;;;;;;8.60;7.70;;;23.50;97.00;;;;;;6187026;23;20432;-74
2022/06/19 03:41:18;;;;;;;8.20;7.40;;;23.40;97.00;;;;;;6187219;23;20491;-74
2022/06/19 03:43:45;;;;;;;8.30;7.50;;;23.40;97.00;;;;;;6195522;23;20548;-75
2022/06/19 03:46:15;;;;;;;8.50;7.80;;;23.40;97.10;;;;;;6187405;23;20433;-76
2022/06/19 03:48:44;;;;;;;7.97;7.33;;;23.40;97.10;;;;;;6188130;23;20456;-74
2022/06/19 03:51:12;;;;;;;9.73;8.33;;;23.50;97.10;;;;;;6204755;23;20444;-81
2022/06/19 03:53:40;;;;;;;9.17;8.47;;;23.50;97.20;;;;;;6189416;23;20924;-76
2022/06/19 03:56:07;;;;;;;8.20;7.60;;;23.50;97.20;;;;;;6189690;23;20440;-75
2022/06/19 03:58:46;;;;;;;9.57;8.00;;;23.50;97.10;;;;;;6188482;23;20428;-74
2022/06/19 04:01:15;;;;;;;9.17;8.47;;;23.50;97.20;;;;;;6201967;23;20449;-78
2022/06/19 04:03:43;;;;;;;9.63;8.60;;;23.60;97.20;;;;;;6199637;23;20460;-75
2022/06/19 04:06:12;;;;;;;9.10;8.20;;;23.50;97.20;;;;;;6192527;23;20448;-76
2022/06/19 04:08:40;;;;;;;8.70;7.73;;;23.50;97.30;;;;;;6205297;23;20436;-80
2022/06/19 04:11:08;;;;;;;7.80;7.00;;;23.60;97.30;;;;;;6195503;23;20443;-76
2022/06/19 04:13:36;;;;;;;9.80;8.70;;;23.70;97.20;;;;;;6200603;23;20495;-75
2022/06/19 04:16:03;;;;;;;8.70;7.70;;;23.70;97.30;;;;;;6189991;23;20511;-80
2022/06/19 04:18:31;;;;;;;8.30;7.70;;;23.70;97.10;;;;;;6188009;23;20433;-80
2022/06/19 04:20:59;;;;;;;9.50;8.30;;;23.70;97.10;;;;;;6186678;23;20433;-76
2022/06/19 04:23:28;;;;;;;8.57;7.93;;;23.80;97.10;;;;;;6185973;23;20498;-76
2022/06/19 04:25:55;;;;;;;10.83;7.57;;;23.80;97.10;;;;;;6186995;23;20770;-81
2022/06/19 04:28:24;;;;;;;9.37;8.47;;;23.90;97.10;;;;;;6185927;23;20432;-75
2022/06/19 04:30:51;;;;;;;9.20;8.60;;;23.90;97.00;;;;;;6157055;23;20433;-81
2022/06/19 04:33:20;;;;;;;9.67;8.83;;;24.00;97.00;;;;;;6157246;23;20434;-81
2022/06/19 04:35:48;;;;;;;9.50;8.80;;;24.00;97.00;;;;;;6158026;23;20882;-80
2022/06/19 04:38:16;;;;;;;15.23;9.60;;;24.00;96.90;;;;;;6156866;23;20525;-76
2022/06/19 04:40:44;;;;;;;10.30;8.60;;;24.10;96.90;;;;;;6154924;23;20438;-81
2022/06/19 04:43:12;;;;;;;9.83;8.33;;;24.10;96.90;;;;;;6157412;23;20797;-81
2022/06/19 04:45:40;;;;;;;8.70;7.80;;;24.20;96.80;;;;;;6156541;23;20445;-81
2022/06/19 04:48:08;;;;;;;10.03;9.03;;;24.20;96.70;;;;;;6157491;23;20513;-81
2022/06/19 04:50:35;;;;;;;11.73;8.37;;;24.30;96.70;;;;;;6156574;23;20758;-76
2022/06/19 04:53:04;;;;;;;10.00;9.10;;;24.30;96.50;;;;;;6158191;23;20466;-80
2022/06/19 04:55:31;;;;;;;9.93;8.80;;;24.30;96.50;;;;;;6158050;23;20716;-76
2022/06/19 04:58:03;;;;;;;9.50;8.70;;;24.40;96.40;;;;;;6159226;23;20898;-82
2022/06/19 05:00:31;;;;;;;9.67;8.70;;;24.50;96.40;;;;;;6158317;23;20445;-80
2022/06/19 05:03:00;;;;;;;9.67;8.83;;;24.50;96.20;;;;;;6158236;23;20433;-76
2022/06/19 05:05:28;;;;;;;10.10;9.10;;;24.50;96.20;;;;;;6156999;23;20441;-76
2022/06/19 05:07:55;;;;;;;10.73;9.83;;;24.50;96.20;;;;;;6158537;23;20460;-81
2022/06/19 05:10:22;;;;;;;13.23;9.73;;;24.60;96.00;;;;;;6158984;23;20441;-81
2022/06/19 05:12:49;;;;;;;10.60;9.50;;;24.70;95.90;;;;;;6158245;23;20450;-75
2022/06/19 05:15:18;;;;;;;10.17;9.30;;;24.70;95.70;;;;;;6158168;23;20523;-76
2022/06/19 05:17:45;;;;;;;11.47;10.20;;;24.80;95.60;;;;;;6150188;23;20434;-80
2022/06/19 05:20:13;;;;;;;11.60;10.43;;;24.90;95.70;;;;;;6157098;23;20439;-76
2022/06/19 05:22:40;;;;;;;10.13;9.23;;;25.00;95.20;;;;;;6158204;23;20448;-76
2022/06/19 05:25:09;;;;;;;9.33;8.47;;;25.10;95.10;;;;;;6157360;23;20901;-76
2022/06/19 05:27:37;;;;;;;9.73;8.93;;;25.20;94.90;;;;;;6157260;23;20496;-77
2022/06/19 05:30:10;;;;;;;9.57;8.87;;;25.20;94.80;;;;;;6157239;23;20492;-76
2022/06/19 05:32:38;;;;;;;14.20;13.10;;;25.30;94.60;;;;;;6154390;23;20961;-81
2022/06/19 05:35:07;;;;;;;13.23;11.90;;;25.40;94.40;;;;;;6170107;23;20425;-81
2022/06/19 05:37:37;;;;;;;10.67;9.57;;;25.50;94.10;;;;;;6175743;23;20434;-81
2022/06/19 05:40:06;;;;;;;12.20;10.90;;;25.60;93.70;;;;;;6171790;23;20489;-80
2022/06/19 05:42:33;;;;;;;9.63;8.30;;;25.70;93.30;;;;;;6169680;23;20433;-81
2022/06/19 05:45:00;;;;;;;8.93;8.20;;;25.80;93.00;;;;;;6159976;23;20707;-80
2022/06/19 05:47:27;;;;;;;11.00;9.53;;;25.80;92.70;;;;;;6158501;23;20457;-81
2022/06/19 05:49:57;;;;;;;11.07;9.10;;;25.90;92.30;;;;;;6157404;23;20438;-80
2022/06/19 05:52:25;;;;;;;10.43;9.40;;;26.00;92.00;;;;;;6156719;23;20496;-75
2022/06/19 05:54:54;;;;;;;11.73;9.07;;;26.10;91.70;;;;;;6156844;23;20465;-75
2022/06/19 05:57:22;;;;;;;9.23;8.47;;;26.20;91.30;;;;;;6157930;23;20434;-75
2022/06/19 05:59:49;;;;;;;8.43;7.73;;;26.30;91.20;;;;;;6156978;23;20802;-80
2022/06/19 06:02:21;;;;;;;10.00;8.63;;;26.40;91.00;;;;;;6158728;23;20508;-81
2022/06/19 06:04:48;;;;;;;9.40;7.97;;;26.50;90.80;;;;;;6163474;23;20947;-81
2022/06/19 06:07:16;;;;;;;8.83;8.00;;;26.60;90.60;;;;;;6178381;23;20505;-81
2022/06/19 06:09:44;;;;;;;9.60;8.60;;;26.80;90.60;;;;;;6178914;23;20437;-81
2022/06/19 06:12:11;;;;;;;8.83;8.03;;;26.90;90.50;;;;;;6175330;23;20441;-81
2022/06/19 06:14:38;;;;;;;11.67;8.60;;;27.00;90.30;;;;;;6173786;23;20493;-81
2022/06/19 06:17:05;;;;;;;10.10;9.17;;;27.10;88.70;;;;;;6175380;23;20512;-81
2022/06/19 06:19:33;;;;;;;10.37;7.83;;;27.20;88.50;;;;;;6176800;23;20435;-81
2022/06/19 06:22:02;;;;;;;12.40;9.00;;;27.30;87.80;;;;;;6172669;23;20443;-80
2022/06/19 06:24:31;;;;;;;8.33;7.63;;;27.40;87.80;;;;;;6178283;23;20501;-81
2022/06/19 06:26:59;;;;;;;8.00;7.30;;;27.60;87.90;;;;;;6173476;23;20437;-80
2022/06/19 06:29:26;;;;;;;15.83;8.93;;;27.80;87.80;;;;;;6175506;23;20451;-81
2022/06/19 06:31:53;;;;;;;10.00;8.53;;;27.90;87.80;;;;;;6173613;23;20475;-80
2022/06/19 06:34:20;;;;;;;11.63;8.00;;;28.00;86.80;;;;;;6174872;23;20434;-81
2022/06/19 06:36:47;;;;;;;10.83;9.47;;;28.10;86.30;;;;;;6171925;23;20442;-76
2022/06/19 06:39:14;;;;;;;13.90;9.40;;;28.30;86.00;;;;;;6197010;23;20428;-75
2022/06/19 06:41:43;;;;;;;9.20;8.40;;;28.40;84.70;;;;;;6192726;23;20892;-75
2022/06/19 06:44:13;;;;;;;10.23;8.10;;;28.50;84.30;;;;;;6189892;23;20779;-75
2022/06/19 06:46:41;;;;;;;10.73;8.70;;;28.60;82.80;;;;;;6189709;23;20432;-74
2022/06/19 06:49:10;;;;;;;8.63;7.83;;;28.70;81.50;;;;;;6190459;23;20927;-74
2022/06/19 06:51:38;;;;;;;11.40;9.37;;;28.90;81.80;;;;;;6192369;23;20443;-75
2022/06/19 06:54:05;;;;;;;9.57;8.30;;;29.00;80.90;;;;;;6189196;23;20436;-75
2022/06/19 06:56:34;;;;;;;11.63;7.67;;;29.20;79.90;;;;;;6195119;23;20437;-76
2022/06/19 06:59:04;;;;;;;9.80;7.40;;;29.30;79.00;;;;;;6190058;23;20437;-76
2022/06/19 07:01:32;;;;;;;8.47;7.33;;;29.50;78.30;;;;;;6172239;23;20793;-76
2022/06/19 07:04:02;;;;;;;12.43;9.60;;;29.70;78.20;;;;;;6203867;23;20444;-76
2022/06/19 07:06:32;;;;;;;8.50;7.80;;;29.80;78.20;;;;;;6188400;23;20436;-76
2022/06/19 07:08:59;;;;;;;12.80;8.90;;;29.90;76.90;;;;;;6186757;23;20467;-75
2022/06/19 07:11:29;;;;;;;10.30;8.77;;;30.00;76.10;;;;;;6185000;23;20468;-75
2022/06/19 07:13:58;;;;;;;9.90;8.53;;;30.20;75.80;;;;;;6186304;23;20444;-76
2022/06/19 07:16:32;;;;;;;11.70;9.00;;;30.30;74.40;;;;;;6185239;23;20503;-75
2022/06/19 07:19:01;;;;;;;9.50;7.77;;;30.40;75.20;;;;;;6187407;23;20971;-82
2022/06/19 07:21:29;;;;;;;9.13;6.40;;;30.50;73.60;;;;;;6188574;23;20730;-82
2022/06/19 07:23:56;;;;;;;11.87;6.97;;;30.60;73.00;;;;;;6187119;23;20447;-82
2022/06/19 07:26:26;;;;;;;11.93;8.53;;;30.70;71.70;;;;;;6157669;23;20423;-76
2022/06/19 07:28:55;;;;;;;9.03;7.30;;;30.90;72.80;;;;;;6156564;23;20488;-75
2022/06/19 07:31:24;;;;;;;10.43;7.03;;;31.00;72.00;;;;;;6145031;23;20483;-76
2022/06/19 07:33:53;;;;;;;13.70;7.97;;;31.10;70.70;;;;;;6157161;23;20553;-81
2022/06/19 07:36:26;;;;;;;12.40;7.13;;;31.20;70.60;;;;;;6158190;23;20434;-76
2022/06/19 07:38:54;;;;;;;10.43;6.47;;;31.30;69.90;;;;;;6157533;23;20504;-81
2022/06/19 07:41:21;;;;;;;11.47;9.73;;;31.40;68.50;;;;;;6146412;23;20504;-81
2022/06/19 07:43:51;;;;;;;10.57;7.87;;;31.60;68.60;;;;;;6176650;23;20434;-82
2022/06/19 07:46:20;;;;;;;11.80;8.10;;;31.70;68.60;;;;;;6157385;23;20448;-81
2022/06/19 07:51:34;;;;;;;13.00;11.57;;;31.90;67.60;;;;;;6157429;23;20436;-83
2022/06/19 07:54:03;;;;;;;11.50;9.20;;;32.00;67.10;;;;;;6157381;23;20433;-75
2022/06/19 07:56:31;;;;;;;10.50;9.30;;;32.20;67.30;;;;;;6155370;23;20877;-76
2022/06/19 07:58:58;;;;;;;9.90;9.10;;;32.30;67.50;;;;;;6156156;23;20741;-75
2022/06/19 08:01:26;;;;;;;10.80;8.50;;;32.30;65.00;;;;;;6155655;23;20477;-76
2022/06/19 08:03:55;;;;;;;12.60;7.50;;;32.40;65.20;;;;;;6156964;23;20441;-81
2022/06/19 08:06:22;;;;;;;14.13;7.93;;;32.60;64.70;;;;;;6156519;23;20437;-82
2022/06/19 08:08:51;;;;;;;12.13;7.57;;;32.70;64.20;;;;;;6158120;23;20433;-81
2022/06/19 08:11:18;;;;;;;6.77;5.80;;;32.80;63.90;;;;;;6158003;23;20437;-81
2022/06/19 08:13:47;;;;;;;10.37;7.00;;;32.80;63.20;;;;;;6174810;23;20442;-80
2022/06/19 08:16:17;;;;;;;9.30;7.17;;;33.00;63.00;;;;;;6173720;23;20437;-81
2022/06/19 08:18:47;;;;;;;10.73;6.40;;;33.00;62.10;;;;;;6178015;23;20417;-81
2022/06/19 08:21:17;;;;;;;8.43;6.57;;;33.20;61.70;;;;;;6174161;23;20434;-81
2022/06/19 08:23:47;;;;;;;8.73;5.70;;;33.30;61.20;;;;;;6164870;23;20437;-83
2022/06/19 08:26:18;;;;;;;8.87;4.57;;;33.40;60.00;;;;;;6161468;23;20471;-82
2022/06/19 08:28:50;;;;;;;11.07;6.90;;;33.40;59.00;;;;;;6159888;23;20437;-82
2022/06/19 08:31:20;;;;;;;10.70;6.20;;;33.50;59.00;;;;;;6159173;23;20433;-81
2022/06/19 08:33:49;;;;;;;15.20;7.07;;;33.60;58.80;;;;;;6159540;23;20928;-81
2022/06/19 08:36:19;;;;;;;11.80;5.70;;;33.60;57.40;;;;;;6162845;23;20445;-79
2022/06/19 08:38:51;;;;;;;11.53;6.87;;;33.60;57.60;;;;;;6163944;23;20739;-81
2022/06/19 08:41:48;;;;;;;9.83;5.77;;;33.70;57.60;;;;;;6161466;23;20437;-81
2022/06/19 08:44:47;;;;;;;9.60;6.07;;;33.80;56.70;;;;;;6175105;23;20801;-81
2022/06/19 08:47:30;;;;;;;8.97;5.83;;;33.80;56.60;;;;;;6163767;23;20437;-81
2022/06/19 08:50:10;;;;;;;9.80;6.63;;;33.90;56.80;;;;;;6165422;23;20437;-81
2022/06/19 08:52:51;;;;;;;11.67;6.57;;;33.90;56.30;;;;;;6177891;23;20529;-81
2022/06/19 08:55:31;;;;;;;13.70;7.23;;;33.90;55.70;;;;;;6193834;23;20433;-81
2022/06/19 08:58:12;;;;;;;11.43;8.20;;;34.00;55.50;;;;;;6192114;23;20447;-82
2022/06/19 09:00:49;;;;;;;19.60;8.00;;;34.00;54.70;;;;;;6190153;23;20447;-82
2022/06/19 09:03:28;;;;;;;14.93;9.00;;;34.00;54.20;;;;;;6190678;23;20455;-77
2022/06/19 09:06:01;;;;;;;15.70;8.13;;;34.00;54.10;;;;;;6189288;23;20432;-82
2022/06/19 09:08:51;;;;;;;17.40;9.47;;;34.00;54.30;;;;;;6191163;23;20486;-82
2022/06/19 09:11:33;;;;;;;12.03;8.70;;;34.00;53.90;;;;;;6191055;23;20500;-81
2022/06/19 09:14:17;;;;;;;9.70;8.70;;;34.10;54.20;;;;;;6192166;23;20720;-82
2022/06/19 09:16:53;;;;;;;14.57;9.27;;;34.10;54.40;;;;;;6194885;23;20475;-82
2022/06/19 09:19:37;;;;;;;14.43;10.47;;;34.20;54.30;;;;;;6191901;23;20978;-81
2022/06/19 09:22:17;;;;;;;15.33;10.50;;;34.20;54.10;;;;;;6196935;23;20459;-81
2022/06/19 09:25:04;;;;;;;12.23;9.40;;;34.20;53.20;;;;;;6199320;23;20421;-81
2022/06/19 09:27:38;;;;;;;12.17;8.30;;;34.30;53.40;;;;;;6193313;23;20456;-81
2022/06/19 09:30:12;;;;;;;20.53;8.50;;;34.20;51.80;;;;;;6188534;23;20440;-82
2022/06/19 09:32:50;;;;;;;14.37;7.73;;;34.30;51.30;;;;;;6189732;23;20432;-82
2022/06/19 09:35:21;;;;;;;14.43;7.70;;;34.30;51.60;;;;;;6192911;23;20488;-82
2022/06/19 09:38:00;;;;;;;12.90;8.77;;;34.30;52.00;;;;;;6188349;23;20463;-82
2022/06/19 09:40:30;;;;;;;15.17;7.13;;;34.30;51.70;;;;;;6188491;23;20455;-82
2022/06/19 09:43:02;;;;;;;14.70;8.37;;;34.40;51.40;;;;;;6187996;23;20472;-76
2022/06/19 09:45:36;;;;;;;16.20;6.43;;;34.40;51.70;;;;;;6163258;23;20849;-76
2022/06/19 09:48:08;;;;;;;8.70;4.57;;;34.40;49.90;;;;;;6157311;23;20438;-76
2022/06/19 09:50:42;;;;;;;16.00;5.53;;;34.50;50.00;;;;;;6158043;23;20469;-78
2022/06/19 09:53:16;;;;;;;15.53;5.30;;;34.50;49.50;;;;;;6157223;23;20429;-76
2022/06/19 09:55:47;;;;;;;11.90;5.17;;;34.50;48.90;;;;;;6156780;23;20475;-76
2022/06/19 09:58:19;;;;;;;10.87;5.57;;;34.50;48.70;;;;;;6157051;23;20918;-76
2022/06/19 10:00:50;;;;;;;16.37;6.70;;;34.50;48.80;;;;;;6155967;23;20501;-76
2022/06/19 10:03:21;;;;;;;17.00;5.80;;;34.50;50.10;;;;;;6156198;23;20457;-76
2022/06/19 10:05:52;;;;;;;13.80;5.63;;;34.40;48.40;;;;;;6156872;23;20457;-77
2022/06/19 10:08:23;;;;;;;12.20;5.50;;;34.40;48.10;;;;;;6156581;23;20433;-76
2022/06/19 10:10:55;;;;;;;17.43;6.77;;;34.50;48.90;;;;;;6154631;23;20464;-76
2022/06/19 10:13:35;;;;;;;18.40;5.67;;;34.40;49.30;;;;;;6179044;23;20437;-77
2022/06/19 10:16:06;;;;;;;11.97;6.20;;;34.40;49.30;;;;;;6186616;23;20424;-77
2022/06/19 10:18:36;;;;;;;13.10;6.27;;;34.40;49.10;;;;;;6187707;23;20433;-77
2022/06/19 10:21:07;;;;;;;10.80;5.37;;;34.30;49.20;;;;;;6159725;23;20472;-77
2022/06/19 10:23:51;;;;;;;10.80;5.00;;;34.30;49.30;;;;;;6159159;23;20469;-77
2022/06/19 10:26:38;;;;;;;10.50;4.47;;;34.20;49.50;;;;;;6158569;23;20473;-77
2022/06/19 10:29:19;;;;;;;10.80;5.17;;;34.10;49.70;;;;;;6156409;23;20915;-77
2022/06/19 10:32:02;;;;;;;11.90;5.50;;;34.10;50.00;;;;;;6157026;23;20860;-77
2022/06/19 10:34:49;;;;;;;12.23;6.50;;;34.00;49.60;;;;;;6156624;23;20434;-77
2022/06/19 10:37:27;;;;;;;13.60;6.13;;;34.00;50.60;;;;;;6156278;23;20441;-76
2022/06/19 10:40:06;;;;;;;14.47;6.33;;;33.90;50.00;;;;;;6156713;23;20429;-77
2022/06/19 10:42:44;;;;;;;11.70;5.60;;;33.80;50.00;;;;;;6155927;23;20430;-77
2022/06/19 10:45:31;;;;;;;6.43;4.73;;;33.80;49.90;;;;;;6143200;23;20501;-77
2022/06/19 10:51:22;;;;;;;11.27;6.10;;;33.80;50.30;;;;;;6135533;23;20444;-77
2022/06/19 10:54:07;;;;;;;10.40;6.10;;;33.70;50.40;;;;;;6156663;23;20516;-76
2022/06/19 10:56:45;;;;;;;9.57;5.43;;;33.60;50.50;;;;;;6157011;23;20444;-77
2022/06/19 10:59:13;;;;;;;15.60;6.40;;;33.60;50.70;;;;;;6156900;23;20441;-77
2022/06/19 11:04:38;;;;;;;16.53;5.90;;;33.60;50.30;;;;;;6157208;23;20469;-77
2022/06/19 11:07:11;;;;;;;15.37;5.17;;;33.50;50.20;;;;;;6156040;23;20866;-77
2022/06/19 11:09:45;;;;;;;9.50;4.20;;;33.60;50.50;;;;;;6162839;23;20496;-82
2022/06/19 11:12:20;;;;;;;11.00;5.40;;;33.60;50.50;;;;;;6166126;23;20497;-81
2022/06/19 11:14:50;;;;;;;11.17;5.13;;;33.60;50.60;;;;;;6159954;23;20459;-75
2022/06/19 11:17:30;;;;;;;9.27;5.30;;;33.60;50.60;;;;;;6157097;23;20504;-76
2022/06/19 11:19:58;;;;;;;13.73;5.57;;;33.60;50.60;;;;;;6156437;23;20452;-76
2022/06/19 11:22:37;;;;;;;9.33;5.80;;;33.60;50.50;;;;;;6156284;23;20444;-76
2022/06/19 11:25:30;;;;;;;10.60;5.83;;;33.60;50.70;;;;;;6156209;23;20437;-76
2022/06/19 11:28:01;;;;;;;9.00;5.30;;;33.60;50.50;;;;;;6155980;23;20745;-76
2022/06/19 11:30:33;;;;;;;12.37;4.70;;;33.60;50.30;;;;;;6157818;23;20445;-76
2022/06/19 11:33:01;;;;;;;12.10;4.33;;;33.70;51.10;;;;;;6156189;23;20456;-76
2022/06/19 11:35:41;;;;;;;12.77;5.10;;;33.70;50.50;;;;;;6160045;23;20442;-76
2022/06/19 11:38:09;;;;;;;10.90;5.33;;;33.80;50.30;;;;;;6158866;23;20449;-77
2022/06/19 11:40:38;;;;;;;10.60;5.40;;;33.80;50.60;;;;;;6159350;23;20964;-77
2022/06/19 11:43:21;;;;;;;17.63;5.67;;;33.80;50.30;;;;;;6160322;23;20508;-77
2022/06/19 11:45:59;;;;;;;10.10;5.57;;;33.80;50.30;;;;;;6185843;23;20490;-77
2022/06/19 11:48:27;;;;;;;8.23;4.53;;;33.80;50.30;;;;;;6187072;23;20532;-76
2022/06/19 11:50:57;;;;;;;11.57;6.07;;;33.90;50.20;;;;;;6186831;23;20460;-75
2022/06/19 11:53:32;;;;;;;9.47;6.47;;;33.90;52.10;;;;;;6186301;23;20429;-77
2022/06/19 11:56:26;;;;;;;11.77;5.90;;;34.00;53.50;;;;;;6186880;23;20856;-77
2022/06/19 11:58:56;;;;;;;10.67;6.87;;;34.00;55.90;;;;;;6186593;23;20436;-78
2022/06/19 12:01:34;;;;;;;7.00;6.30;;;34.00;57.30;;;;;;6184836;23;20440;-78
2022/06/19 12:04:08;;;;;;;9.37;6.40;;;33.90;57.80;;;;;;6186700;23;20433;-77
2022/06/19 12:06:45;;;;;;;10.53;6.93;;;33.90;58.40;;;;;;6186881;23;20439;-78
2022/06/19 12:09:27;;;;;;;9.97;6.80;;;33.80;58.70;;;;;;6160623;23;20432;-82
2022/06/19 12:12:01;;;;;;;12.10;6.00;;;33.70;58.80;;;;;;6163221;23;20443;-82
2022/06/19 12:14:30;;;;;;;9.90;6.80;;;33.60;58.80;;;;;;6163293;23;20433;-77
2022/06/19 12:17:19;;;;;;;8.73;5.90;;;33.60;58.80;;;;;;6158008;23;20438;-76
2022/06/19 12:19:53;;;;;;;19.70;6.80;;;33.50;58.80;;;;;;6157012;23;20438;-77
2022/06/19 12:22:24;;;;;;;7.10;6.00;;;33.40;58.30;;;;;;6186887;23;20491;-77
2022/06/19 12:24:59;;;;;;;8.20;5.43;;;33.40;57.90;;;;;;6188798;23;20437;-82
2022/06/19 12:27:31;;;;;;;10.50;6.23;;;33.20;57.40;;;;;;6158845;23;20480;-83
2022/06/19 12:30:04;;;;;;;13.10;7.03;;;33.20;57.40;;;;;;6157875;23;20433;-77
2022/06/19 12:32:35;;;;;;;10.43;6.03;;;33.20;57.20;;;;;;6185846;23;20726;-82
2022/06/19 12:35:08;;;;;;;11.53;6.73;;;33.20;57.00;;;;;;6183863;23;20440;-82
2022/06/19 12:37:37;;;;;;;15.23;7.80;;;33.10;56.70;;;;;;6197913;23;20762;-77
2022/06/19 12:40:05;;;;;;;10.17;6.93;;;33.10;56.20;;;;;;6186573;23;20488;-77
2022/06/19 12:42:46;;;;;;;19.43;7.03;;;33.10;56.50;;;;;;6186511;23;20436;-82
2022/06/19 12:45:23;;;;;;;15.03;6.10;;;33.00;56.90;;;;;;6185487;23;20528;-77
2022/06/19 12:48:00;;;;;;;12.80;6.07;;;33.00;56.60;;;;;;6185966;23;20463;-77
2022/06/19 12:50:46;;;;;;;10.30;5.47;;;32.90;56.50;;;;;;6184580;23;20436;-77
2022/06/19 12:53:40;;;;;;;11.77;5.90;;;32.80;56.70;;;;;;6183654;23;20736;-78
2022/06/19 12:56:19;;;;;;;9.13;5.30;;;32.70;56.60;;;;;;6186910;23;20753;-82
2022/06/19 12:59:12;;;;;;;7.80;5.97;;;32.70;56.80;;;;;;6155268;23;20433;-77
2022/06/19 13:01:44;;;;;;;11.80;5.60;;;32.60;56.40;;;;;;6155661;23;20453;-77
2022/06/19 13:04:29;;;;;;;10.67;5.70;;;32.60;56.40;;;;;;6156052;23;20740;-77
2022/06/19 13:07:09;;;;;;;7.50;5.67;;;32.60;56.20;;;;;;6155689;23;20429;-77
2022/06/19 13:09:59;;;;;;;9.47;5.83;;;32.50;56.30;;;;;;6155211;23;20437;-76
2022/06/19 13:12:37;;;;;;;10.93;5.70;;;32.40;56.40;;;;;;6141886;23;20465;-76
2022/06/19 13:15:24;;;;;;;8.23;4.60;;;32.40;56.30;;;;;;6157987;23;20421;-77
2022/06/19 13:17:59;;;;;;;20.43;7.77;;;32.40;56.50;;;;;;6158181;23;20433;-77
2022/06/19 13:20:40;;;;;;;14.00;6.23;;;32.30;56.00;;;;;;6158097;23;20786;-76
2022/06/19 13:23:26;;;;;;;15.00;5.30;;;32.20;55.90;;;;;;6158241;23;20433;-82
2022/06/19 13:26:09;;;;;;;10.50;5.43;;;32.20;55.90;;;;;;6159008;23;20440;-81
2022/06/19 13:28:49;;;;;;;20.47;5.50;;;32.10;55.80;;;;;;6169572;23;20468;-81
2022/06/19 13:31:25;;;;;;;11.27;6.10;;;32.10;55.80;;;;;;6168474;23;20425;-81
2022/06/19 13:34:10;;;;;;;15.60;6.60;;;32.00;55.80;;;;;;6164769;23;20468;-77
2022/06/19 13:36:52;;;;;;;11.53;6.10;;;31.90;55.60;;;;;;6165416;23;20500;-81
2022/06/19 13:39:26;;;;;;;10.93;5.60;;;31.90;55.70;;;;;;6150953;23;20429;-77
2022/06/19 13:42:07;;;;;;;10.87;6.07;;;31.90;55.80;;;;;;6174044;23;20455;-76
2022/06/19 13:44:54;;;;;;;10.77;5.23;;;31.80;55.70;;;;;;6163795;23;20437;-81
2022/06/19 13:47:28;;;;;;;10.27;5.47;;;31.80;55.80;;;;;;6161357;23;20437;-80
2022/06/19 13:49:59;;;;;;;17.20;6.60;;;31.80;56.00;;;;;;6161923;23;20449;-76
2022/06/19 13:52:47;;;;;;;10.17;6.27;;;31.70;56.10;;;;;;6162868;23;20438;-76
2022/06/19 13:55:36;;;;;;;8.83;4.83;;;31.70;56.30;;;;;;6165608;23;20505;-76
2022/06/19 13:58:11;;;;;;;10.17;5.10;;;31.70;56.70;;;;;;6159087;23;20429;-76
2022/06/19 14:00:46;;;;;;;8.03;5.40;;;31.70;57.30;;;;;;6158821;23;20910;-75